Time;durP1;ratioP1;P1;durP2;ratioP2;P2;SDS_P1;SDS_P2;PMS_P1;PMS_P2;Temp;Humidity;BMP_temperature;BMP_pressure;BME280_temperature;BME280_humidity;BME280_pressure;Samples;Min_cycle;Max_cycle;Signal;HPM_P1;HPM_P2
2022/03/25 00:02:03;;;;;;;110.97;54.60;;;2.60;99.90;;;;;;4944184;28;20034;-75
2022/03/25 00:04:29;;;;;;;106.60;55.67;;;2.60;99.90;;;;;;4960269;28;20078;-75
2022/03/25 00:06:55;;;;;;;102.57;52.90;;;2.60;99.90;;;;;;4958805;28;20074;-76
2022/03/25 00:09:20;;;;;;;104.35;54.60;;;2.50;99.90;;;;;;4959603;28;20440;-76
2022/03/25 00:11:46;;;;;;;109.57;54.35;;;2.50;99.90;;;;;;4959276;28;20047;-75
2022/03/25 00:14:11;;;;;;;100.30;53.20;;;2.50;99.90;;;;;;4958430;28;20038;-75
2022/03/25 00:16:37;;;;;;;107.90;56.10;;;2.40;99.90;;;;;;4958708;28;20050;-75
2022/03/25 00:19:03;;;;;;;100.80;53.38;;;2.40;99.90;;;;;;4959107;28;20038;-75
2022/03/25 00:21:29;;;;;;;101.25;51.15;;;2.40;99.90;;;;;;4958264;28;20123;-75
2022/03/25 00:23:55;;;;;;;108.70;54.65;;;2.30;99.90;;;;;;4959046;28;20047;-76
2022/03/25 00:26:20;;;;;;;104.13;53.83;;;2.30;99.90;;;;;;4958585;28;20473;-76
2022/03/25 00:28:46;;;;;;;106.75;54.70;;;2.30;99.90;;;;;;4942333;28;20046;-75
2022/03/25 00:31:11;;;;;;;110.88;54.88;;;2.20;99.90;;;;;;4958679;28;20098;-75
2022/03/25 00:33:37;;;;;;;99.00;51.30;;;2.20;99.90;;;;;;4942377;28;20039;-75
2022/03/25 00:36:03;;;;;;;101.40;52.97;;;2.20;99.90;;;;;;4957675;28;20110;-75
2022/03/25 00:38:29;;;;;;;100.53;50.60;;;2.10;99.90;;;;;;4958006;28;20034;-75
2022/03/25 00:40:55;;;;;;;98.15;50.10;;;2.10;99.90;;;;;;4958607;28;20084;-75
2022/03/25 00:43:22;;;;;;;99.18;50.97;;;2.10;99.90;;;;;;4959166;28;20043;-75
2022/03/25 00:45:48;;;;;;;106.90;53.08;;;2.00;99.90;;;;;;4958630;28;20035;-75
2022/03/25 00:48:14;;;;;;;115.70;55.35;;;2.00;99.90;;;;;;4958750;28;20551;-75
2022/03/25 00:50:41;;;;;;;105.45;51.97;;;1.90;99.90;;;;;;4943917;28;20409;-75
2022/03/25 00:53:08;;;;;;;102.75;51.85;;;1.90;99.90;;;;;;4958978;28;20046;-75
2022/03/25 00:55:34;;;;;;;109.07;53.50;;;1.90;99.90;;;;;;4958665;28;20031;-75
2022/03/25 00:58:00;;;;;;;101.47;51.50;;;1.80;99.90;;;;;;4959803;28;20053;-75
2022/03/25 01:00:26;;;;;;;109.40;53.95;;;1.80;99.90;;;;;;4960033;28;20035;-75
2022/03/25 01:02:51;;;;;;;111.68;51.30;;;1.80;99.90;;;;;;4975677;28;20047;-75
2022/03/25 01:05:17;;;;;;;97.30;49.85;;;1.70;99.90;;;;;;4943412;28;20528;-75
2022/03/25 01:07:44;;;;;;;93.22;49.58;;;1.70;99.90;;;;;;4959403;28;20166;-75
2022/03/25 01:10:10;;;;;;;93.15;49.30;;;1.70;99.90;;;;;;4959352;28;20038;-75
2022/03/25 01:12:36;;;;;;;119.20;49.95;;;1.60;99.90;;;;;;4959093;28;20046;-75
2022/03/25 01:15:02;;;;;;;91.95;45.33;;;1.60;99.90;;;;;;4959885;28;20045;-75
2022/03/25 01:17:28;;;;;;;111.50;47.55;;;1.50;99.90;;;;;;4959229;28;20066;-75
2022/03/25 01:19:54;;;;;;;81.63;45.35;;;1.50;99.90;;;;;;4959388;28;20062;-76
2022/03/25 01:22:19;;;;;;;92.35;48.05;;;1.40;99.90;;;;;;4959013;28;20552;-75
2022/03/25 01:24:45;;;;;;;104.10;50.03;;;1.40;99.90;;;;;;4958575;28;20047;-75
2022/03/25 01:27:11;;;;;;;98.20;49.58;;;1.30;99.90;;;;;;4926992;28;20066;-76
2022/03/25 01:29:36;;;;;;;95.38;46.85;;;1.30;99.90;;;;;;4963578;28;20042;-75
2022/03/25 01:32:03;;;;;;;92.28;45.90;;;1.30;99.90;;;;;;4963033;28;20043;-75
2022/03/25 01:34:29;;;;;;;158.75;42.83;;;1.20;99.90;;;;;;4947027;28;20077;-75
2022/03/25 01:36:55;;;;;;;242.40;46.08;;;1.20;99.90;;;;;;4963071;28;20409;-75
2022/03/25 01:39:20;;;;;;;100.60;41.38;;;1.20;99.90;;;;;;4962509;28;20088;-76
2022/03/25 01:41:47;;;;;;;79.88;42.33;;;1.10;99.90;;;;;;4962607;28;20037;-75
2022/03/25 01:44:13;;;;;;;285.65;44.90;;;1.10;99.90;;;;;;4947128;28;20078;-75
2022/03/25 01:46:39;;;;;;;127.97;42.50;;;1.10;99.90;;;;;;4947475;28;20397;-75
2022/03/25 01:49:05;;;;;;;173.57;45.47;;;1.10;99.90;;;;;;4962047;28;20046;-76
2022/03/25 01:51:36;;;;;;;341.85;48.30;;;1.10;99.90;;;;;;4946228;28;20038;-75
2022/03/25 01:54:17;;;;;;;274.48;48.15;;;1.10;99.90;;;;;;4946210;28;20042;-75
2022/03/25 01:56:42;;;;;;;186.85;44.85;;;1.10;99.90;;;;;;4946239;28;20321;-75
2022/03/25 01:59:09;;;;;;;163.15;41.92;;;1.10;99.90;;;;;;4946919;28;20039;-75
2022/03/25 02:01:35;;;;;;;84.28;40.30;;;1.00;99.90;;;;;;4944899;28;20046;-75
2022/03/25 02:04:00;;;;;;;411.50;52.33;;;0.90;99.90;;;;;;4961615;28;20401;-75
2022/03/25 02:06:26;;;;;;;260.67;44.33;;;0.90;99.90;;;;;;4961315;28;20543;-75
2022/03/25 02:08:52;;;;;;;288.70;48.13;;;0.80;99.90;;;;;;4961190;28;20432;-75
2022/03/25 02:11:18;;;;;;;277.70;51.28;;;0.80;99.90;;;;;;4945726;28;20084;-75
2022/03/25 02:13:44;;;;;;;353.60;51.97;;;0.70;99.90;;;;;;4962831;28;20094;-75
2022/03/25 02:16:09;;;;;;;305.10;49.92;;;0.70;99.90;;;;;;4979198;28;20471;-75
2022/03/25 02:18:35;;;;;;;281.92;50.17;;;0.60;99.90;;;;;;4963812;28;20074;-75
2022/03/25 02:21:01;;;;;;;278.05;48.17;;;0.60;99.90;;;;;;4962861;28;20077;-75
2022/03/25 02:23:29;;;;;;;201.45;46.30;;;0.60;99.90;;;;;;4962734;28;20177;-75
2022/03/25 02:25:55;;;;;;;144.40;43.70;;;0.50;99.90;;;;;;4963744;28;20039;-75
2022/03/25 02:28:21;;;;;;;146.75;43.58;;;0.50;99.90;;;;;;4962812;28;20043;-75
2022/03/25 02:30:47;;;;;;;132.10;43.45;;;0.50;99.90;;;;;;4962302;28;20037;-75
2022/03/25 02:33:14;;;;;;;132.65;44.83;;;0.40;99.90;;;;;;4962704;28;20081;-76
2022/03/25 02:35:48;;;;;;;90.60;44.15;;;0.40;99.90;;;;;;4947541;28;20050;-75
2022/03/25 02:38:19;;;;;;;170.02;46.40;;;0.40;99.90;;;;;;4946950;28;20401;-75
2022/03/25 02:40:46;;;;;;;114.93;43.22;;;0.30;99.90;;;;;;4962238;28;20042;-75
2022/03/25 02:43:12;;;;;;;88.15;44.63;;;0.40;99.90;;;;;;4962504;28;20489;-75
2022/03/25 02:45:38;;;;;;;90.78;44.50;;;0.40;99.90;;;;;;4964028;28;20046;-75
2022/03/25 02:48:05;;;;;;;191.25;46.03;;;0.40;99.90;;;;;;4963176;28;20523;-75
2022/03/25 02:50:31;;;;;;;172.10;48.47;;;0.30;99.90;;;;;;4963467;28;20042;-75
2022/03/25 02:52:58;;;;;;;142.15;46.80;;;0.30;99.90;;;;;;4963063;28;20042;-75
2022/03/25 02:55:24;;;;;;;139.77;46.83;;;0.30;99.90;;;;;;4961945;28;20066;-75
2022/03/25 02:57:50;;;;;;;99.85;50.47;;;0.30;99.90;;;;;;4948083;28;20038;-75
2022/03/25 03:00:17;;;;;;;117.75;51.88;;;0.30;99.90;;;;;;4964534;28;20043;-75
2022/03/25 03:02:43;;;;;;;132.85;53.63;;;0.40;99.90;;;;;;4963362;28;20049;-75
2022/03/25 03:05:08;;;;;;;114.55;52.03;;;0.40;99.90;;;;;;4963915;28;20444;-75
2022/03/25 03:07:38;;;;;;;133.38;55.25;;;0.40;99.90;;;;;;4963772;28;20038;-75
2022/03/25 03:10:05;;;;;;;630.97;77.63;;;0.50;99.90;;;;;;4945130;29;20063;-75
2022/03/25 03:12:32;;;;;;;776.30;83.10;;;0.50;99.90;;;;;;4940590;28;20105;-75
2022/03/25 03:14:58;;;;;;;806.70;99.40;;;0.70;99.90;;;;;;4963256;28;20046;-75
2022/03/25 03:17:23;;;;;;;778.38;91.57;;;0.90;99.90;;;;;;4947800;28;20047;-76
2022/03/25 03:19:50;;;;;;;830.58;106.85;;;1.00;99.90;;;;;;4946610;28;20051;-75
2022/03/25 03:22:17;;;;;;;904.20;106.78;;;1.10;99.90;;;;;;4961987;28;20482;-75
2022/03/25 03:24:43;;;;;;;846.55;92.13;;;1.20;99.90;;;;;;4946379;28;20368;-76
2022/03/25 03:27:09;;;;;;;929.42;95.18;;;1.20;99.90;;;;;;4962608;28;20031;-75
2022/03/25 03:29:35;;;;;;;756.53;90.28;;;1.20;99.90;;;;;;4962934;28;20053;-75
2022/03/25 03:32:01;;;;;;;868.47;90.65;;;1.30;99.90;;;;;;4961450;28;20501;-75
2022/03/25 03:34:26;;;;;;;727.75;80.90;;;1.30;99.90;;;;;;4945990;28;20567;-75
2022/03/25 03:36:52;;;;;;;404.17;70.72;;;1.30;99.90;;;;;;4947542;28;20390;-75
2022/03/25 03:39:18;;;;;;;583.53;73.32;;;1.20;99.90;;;;;;4963043;28;20457;-75
2022/03/25 03:41:43;;;;;;;540.80;74.55;;;1.20;99.90;;;;;;4946624;28;20039;-75
2022/03/25 03:44:09;;;;;;;234.35;59.55;;;1.10;99.90;;;;;;4947869;28;20047;-75
2022/03/25 03:46:34;;;;;;;198.45;56.65;;;1.00;99.90;;;;;;4962483;28;20050;-76
2022/03/25 03:49:00;;;;;;;188.35;57.17;;;1.00;99.90;;;;;;4959730;28;20046;-76
2022/03/25 03:51:26;;;;;;;98.45;48.55;;;0.90;99.90;;;;;;4959883;28;20428;-75
2022/03/25 03:53:51;;;;;;;137.82;48.40;;;0.90;99.90;;;;;;4959683;28;20229;-75
2022/03/25 03:56:17;;;;;;;174.07;51.17;;;0.80;99.90;;;;;;4944100;28;20134;-76
2022/03/25 03:58:42;;;;;;;166.23;52.55;;;0.80;99.90;;;;;;4960225;28;20106;-75
2022/03/25 04:01:08;;;;;;;117.53;49.30;;;0.70;99.90;;;;;;4943836;28;20061;-76
2022/03/25 04:03:33;;;;;;;282.00;58.72;;;0.70;99.90;;;;;;4959169;28;20042;-75
2022/03/25 04:06:00;;;;;;;198.00;52.88;;;0.60;99.90;;;;;;4943122;28;20066;-76
2022/03/25 04:08:26;;;;;;;188.13;48.95;;;0.60;99.90;;;;;;4958976;28;20109;-76
2022/03/25 04:10:52;;;;;;;378.80;63.85;;;0.60;99.90;;;;;;4959805;28;20477;-76
2022/03/25 04:13:17;;;;;;;440.65;69.25;;;0.50;99.90;;;;;;4958137;28;20031;-75
2022/03/25 04:15:43;;;;;;;338.67;55.40;;;0.50;99.90;;;;;;4958857;28;20401;-75
2022/03/25 04:18:09;;;;;;;243.35;53.55;;;0.50;99.90;;;;;;4942741;28;20054;-75
2022/03/25 04:20:34;;;;;;;343.80;61.65;;;0.40;99.90;;;;;;4958623;28;20038;-75
2022/03/25 04:23:00;;;;;;;305.63;55.42;;;0.40;99.90;;;;;;4957239;28;20035;-75
2022/03/25 04:25:26;;;;;;;197.98;50.30;;;0.40;99.90;;;;;;4939998;28;20461;-75
2022/03/25 04:27:56;;;;;;;356.08;51.53;;;0.40;99.90;;;;;;4956131;28;20042;-75
2022/03/25 04:30:24;;;;;;;359.23;57.13;;;0.40;99.90;;;;;;4940114;28;20042;-75
2022/03/25 04:32:50;;;;;;;419.38;56.35;;;0.40;99.90;;;;;;4955527;28;20057;-75
2022/03/25 04:35:16;;;;;;;238.90;51.13;;;0.30;99.90;;;;;;4939798;28;20053;-75
2022/03/25 04:37:42;;;;;;;159.80;48.33;;;0.30;99.90;;;;;;4955901;28;20043;-75
2022/03/25 04:40:10;;;;;;;209.75;48.63;;;0.30;99.90;;;;;;4955679;28;20378;-75
2022/03/25 04:42:36;;;;;;;284.05;52.30;;;0.30;99.90;;;;;;4936693;29;20082;-75
2022/03/25 04:45:01;;;;;;;205.50;51.53;;;0.30;99.90;;;;;;4947801;28;20050;-75
2022/03/25 04:47:27;;;;;;;271.85;55.55;;;0.30;99.90;;;;;;4955998;28;20054;-75
2022/03/25 04:49:52;;;;;;;313.27;55.33;;;0.20;99.90;;;;;;4955751;28;20053;-75
2022/03/25 04:52:18;;;;;;;198.15;44.38;;;0.20;99.90;;;;;;4939336;28;20046;-75
2022/03/25 04:54:43;;;;;;;395.27;55.75;;;0.20;99.90;;;;;;4954752;28;20047;-75
2022/03/25 04:57:09;;;;;;;298.38;51.95;;;0.30;99.90;;;;;;4955909;28;20054;-75
2022/03/25 04:59:34;;;;;;;394.27;54.05;;;0.30;99.90;;;;;;4955726;28;20305;-75
2022/03/25 05:02:01;;;;;;;374.35;54.40;;;0.30;99.90;;;;;;4954390;28;20050;-75
2022/03/25 05:04:27;;;;;;;365.02;53.90;;;0.30;99.90;;;;;;4955283;28;20039;-75
2022/03/25 05:06:53;;;;;;;291.70;51.22;;;0.30;99.90;;;;;;4955453;28;20050;-75
2022/03/25 05:09:19;;;;;;;304.73;49.33;;;0.30;99.90;;;;;;4955642;28;20101;-75
2022/03/25 05:11:45;;;;;;;175.23;45.00;;;0.20;99.90;;;;;;4955275;28;20077;-74
2022/03/25 05:14:11;;;;;;;133.68;45.15;;;0.20;99.90;;;;;;4954454;28;20125;-75
2022/03/25 05:16:37;;;;;;;199.35;45.72;;;0.10;99.90;;;;;;4955429;28;20046;-75
2022/03/25 05:19:02;;;;;;;79.30;38.90;;;0.10;99.90;;;;;;4955192;28;20429;-75
2022/03/25 05:21:28;;;;;;;97.57;39.40;;;0.00;99.90;;;;;;4955219;28;20074;-75
2022/03/25 05:23:54;;;;;;;78.32;40.20;;;0.00;99.90;;;;;;4954609;28;20145;-75
2022/03/25 05:26:20;;;;;;;155.15;42.08;;;-0.10;99.90;;;;;;4955511;28;20070;-75
2022/03/25 05:28:46;;;;;;;123.38;39.78;;;-0.10;99.90;;;;;;4955667;28;20421;-75
2022/03/25 05:31:11;;;;;;;187.70;46.50;;;-0.10;99.90;;;;;;4955283;28;20043;-76
2022/03/25 05:33:37;;;;;;;160.48;42.00;;;-0.10;99.90;;;;;;4954563;28;20043;-75
2022/03/25 05:36:03;;;;;;;320.98;51.90;;;-0.10;99.90;;;;;;4955281;28;20524;-75
2022/03/25 05:38:30;;;;;;;259.48;48.40;;;-0.10;99.90;;;;;;4955472;28;20405;-75
2022/03/25 05:40:56;;;;;;;253.15;45.53;;;-0.10;99.90;;;;;;4954989;28;20146;-75
2022/03/25 05:43:21;;;;;;;172.85;41.55;;;-0.10;99.90;;;;;;4954729;28;20430;-75
2022/03/25 05:45:47;;;;;;;283.70;47.08;;;-0.10;99.90;;;;;;4955524;28;20497;-75
2022/03/25 05:48:12;;;;;;;179.70;41.33;;;-0.10;99.90;;;;;;4955015;28;20034;-75
2022/03/25 05:50:38;;;;;;;171.48;44.38;;;-0.10;99.90;;;;;;4955070;28;20050;-75
2022/03/25 05:53:05;;;;;;;147.98;44.33;;;-0.10;99.90;;;;;;4954780;28;20485;-75
2022/03/25 05:55:32;;;;;;;136.35;44.00;;;0.00;99.90;;;;;;4939466;28;20042;-75
2022/03/25 05:57:57;;;;;;;168.45;45.88;;;-0.10;99.90;;;;;;4939238;28;20034;-75
2022/03/25 06:00:23;;;;;;;115.15;43.58;;;-0.10;99.90;;;;;;4955470;28;20481;-75
2022/03/25 06:02:49;;;;;;;101.05;39.03;;;0.00;99.90;;;;;;4938475;28;20046;-75
2022/03/25 06:05:15;;;;;;;105.53;40.53;;;0.00;99.90;;;;;;4955080;28;20042;-75
2022/03/25 06:07:45;;;;;;;95.25;42.65;;;0.00;99.90;;;;;;4938798;28;20130;-75
2022/03/25 06:10:13;;;;;;;76.70;40.67;;;0.00;99.90;;;;;;4955396;28;20039;-75
2022/03/25 06:12:39;;;;;;;83.07;40.90;;;0.00;99.90;;;;;;4955020;28;20070;-75
2022/03/25 06:15:06;;;;;;;83.78;41.67;;;0.10;99.90;;;;;;4958308;28;20043;-75
2022/03/25 06:17:32;;;;;;;89.93;41.97;;;0.10;99.90;;;;;;4956119;28;20066;-75
2022/03/25 06:19:58;;;;;;;76.47;41.00;;;0.20;99.90;;;;;;4958162;28;20073;-75
2022/03/25 06:22:24;;;;;;;119.95;42.15;;;0.20;99.90;;;;;;4958124;28;20074;-75
2022/03/25 06:24:52;;;;;;;77.10;40.85;;;0.20;99.90;;;;;;4958550;28;20046;-75
2022/03/25 06:27:17;;;;;;;96.43;40.47;;;0.30;99.90;;;;;;4940366;28;20313;-75
2022/03/25 06:29:43;;;;;;;77.65;39.25;;;0.30;99.90;;;;;;4958159;28;20070;-76
2022/03/25 06:32:08;;;;;;;126.95;43.90;;;0.30;99.90;;;;;;4958346;28;20113;-76
2022/03/25 06:34:34;;;;;;;67.18;36.95;;;0.40;99.90;;;;;;4958364;28;20039;-75
2022/03/25 06:37:01;;;;;;;69.65;38.70;;;0.40;99.90;;;;;;4958274;28;20069;-75
2022/03/25 06:39:26;;;;;;;74.80;39.97;;;0.40;99.90;;;;;;4958389;28;20046;-77
2022/03/25 06:41:52;;;;;;;64.38;37.80;;;0.50;99.90;;;;;;4957943;28;20038;-75
2022/03/25 06:44:17;;;;;;;63.47;37.47;;;0.50;99.90;;;;;;4958031;28;20051;-75
2022/03/25 06:46:43;;;;;;;64.75;38.13;;;0.60;99.90;;;;;;4957974;28;20074;-75
2022/03/25 06:49:09;;;;;;;65.88;37.88;;;0.60;99.90;;;;;;4941645;28;20389;-77
2022/03/25 06:51:35;;;;;;;70.20;39.70;;;0.70;99.90;;;;;;4942040;28;20421;-75
2022/03/25 06:54:00;;;;;;;72.35;40.58;;;0.80;99.90;;;;;;4941691;28;20405;-75
2022/03/25 06:56:26;;;;;;;71.10;39.92;;;0.90;99.90;;;;;;4974902;28;20504;-75
2022/03/25 06:58:52;;;;;;;67.75;39.35;;;0.90;99.90;;;;;;4957064;28;20352;-75
2022/03/25 07:01:18;;;;;;;74.65;40.78;;;1.00;99.90;;;;;;4956684;28;20035;-77
2022/03/25 07:03:44;;;;;;;86.05;43.08;;;1.10;99.90;;;;;;4956963;28;20050;-77
2022/03/25 07:06:09;;;;;;;82.75;43.35;;;1.20;99.90;;;;;;4941785;28;20074;-77
2022/03/25 07:08:36;;;;;;;85.90;45.60;;;1.30;99.90;;;;;;4941779;28;20079;-77
2022/03/25 07:11:02;;;;;;;81.55;43.03;;;1.40;99.90;;;;;;4941226;28;20529;-78
2022/03/25 07:13:28;;;;;;;89.57;44.03;;;1.50;99.90;;;;;;4957237;28;20039;-78
2022/03/25 07:15:54;;;;;;;99.50;46.80;;;1.60;99.90;;;;;;4958049;28;20125;-78
2022/03/25 07:18:20;;;;;;;102.43;48.20;;;1.80;99.90;;;;;;4957482;28;20038;-78
2022/03/25 07:20:45;;;;;;;105.47;49.05;;;1.90;99.90;;;;;;4957606;28;20101;-77
2022/03/25 07:23:11;;;;;;;102.30;50.03;;;2.00;99.90;;;;;;4957563;28;20039;-77
2022/03/25 07:25:37;;;;;;;99.45;49.55;;;2.20;99.90;;;;;;4957177;28;20039;-77
2022/03/25 07:28:03;;;;;;;105.30;50.83;;;2.30;99.90;;;;;;4941665;28;20031;-77
2022/03/25 07:30:28;;;;;;;102.75;49.78;;;2.40;99.90;;;;;;4957988;28;20092;-77
2022/03/25 07:32:54;;;;;;;96.13;48.35;;;2.60;99.90;;;;;;4941553;28;20046;-77
2022/03/25 07:35:19;;;;;;;96.63;50.22;;;2.80;99.90;;;;;;4958103;28;20043;-77
2022/03/25 07:37:45;;;;;;;93.20;47.28;;;2.90;99.90;;;;;;4957776;28;20070;-77
2022/03/25 07:40:12;;;;;;;91.90;47.78;;;3.10;99.90;;;;;;4957661;28;20552;-77
2022/03/25 07:42:39;;;;;;;82.53;46.95;;;3.20;99.90;;;;;;4957733;28;20134;-77
2022/03/25 07:45:10;;;;;;;83.47;46.03;;;3.40;99.90;;;;;;4957725;28;20042;-77
2022/03/25 07:47:57;;;;;;;81.13;46.28;;;3.60;99.90;;;;;;4957187;28;20042;-77
2022/03/25 07:50:24;;;;;;;85.47;45.67;;;3.80;99.90;;;;;;4941438;28;20436;-79
2022/03/25 07:52:50;;;;;;;80.20;44.67;;;4.00;99.90;;;;;;4956491;28;20053;-77
2022/03/25 07:55:18;;;;;;;79.20;46.60;;;4.20;99.90;;;;;;4957037;28;20043;-77
2022/03/25 07:57:46;;;;;;;78.85;45.10;;;4.40;99.90;;;;;;4956376;28;20045;-76
2022/03/25 08:00:12;;;;;;;77.00;44.42;;;4.60;99.90;;;;;;4957681;28;20034;-76
2022/03/25 08:02:42;;;;;;;74.03;43.95;;;4.90;99.90;;;;;;4940627;28;20046;-75
2022/03/25 08:05:09;;;;;;;66.07;39.72;;;5.10;99.90;;;;;;4940776;28;20042;-77
2022/03/25 08:07:43;;;;;;;65.78;39.30;;;5.30;99.90;;;;;;4941835;28;20053;-75
2022/03/25 08:10:08;;;;;;;69.15;39.70;;;5.50;99.90;;;;;;4952975;28;20046;-77
2022/03/25 08:12:35;;;;;;;65.43;41.75;;;5.70;99.90;;;;;;4957864;28;20115;-75
2022/03/25 08:15:01;;;;;;;71.55;42.03;;;5.90;99.90;;;;;;4959129;28;20050;-75
2022/03/25 08:17:26;;;;;;;69.53;42.60;;;6.10;99.90;;;;;;4959597;28;20050;-75
2022/03/25 08:19:52;;;;;;;66.57;39.88;;;6.20;99.90;;;;;;4958313;28;20062;-75
2022/03/25 08:22:18;;;;;;;64.13;40.30;;;6.40;99.90;;;;;;4956815;28;20387;-76
2022/03/25 08:30:12;;;;;;;53.03;34.20;;;6.90;99.90;;;;;;4957394;28;20445;-77
2022/03/25 08:32:37;;;;;;;56.05;35.55;;;7.10;99.90;;;;;;4955901;28;20039;-77
2022/03/25 08:35:03;;;;;;;56.42;34.58;;;7.30;99.90;;;;;;4955955;28;20047;-77
2022/03/25 08:37:29;;;;;;;50.25;31.83;;;7.50;99.90;;;;;;4955368;28;20501;-76
2022/03/25 08:39:54;;;;;;;49.55;31.60;;;7.70;99.90;;;;;;4956014;28;20039;-78
2022/03/25 08:42:20;;;;;;;47.92;29.60;;;7.90;99.90;;;;;;4955530;28;20051;-77
2022/03/25 08:44:45;;;;;;;44.58;28.17;;;8.10;99.90;;;;;;4939918;28;20046;-76
2022/03/25 08:47:11;;;;;;;46.60;30.98;;;8.20;99.90;;;;;;4955655;28;20047;-76
2022/03/25 08:49:36;;;;;;;49.72;31.25;;;8.40;99.90;;;;;;4956103;28;20046;-75
2022/03/25 08:52:02;;;;;;;46.08;29.35;;;8.50;99.90;;;;;;4955347;28;20066;-75
2022/03/25 08:54:28;;;;;;;50.35;30.92;;;8.70;99.90;;;;;;4955567;28;20097;-75
2022/03/25 08:56:53;;;;;;;45.70;29.98;;;8.90;99.90;;;;;;4939801;28;20046;-75
2022/03/25 08:59:19;;;;;;;41.05;28.88;;;9.50;99.90;;;;;;4952138;28;20046;-75
2022/03/25 09:01:45;;;;;;;43.92;29.10;;;10.20;99.90;;;;;;4949303;28;20490;-75
2022/03/25 09:04:10;;;;;;;43.13;30.25;;;10.90;99.90;;;;;;4955170;28;21435;-73
2022/03/25 09:06:36;;;;;;;41.55;27.58;;;11.60;99.90;;;;;;4955607;28;20059;-73
2022/03/25 09:09:02;;;;;;;41.00;28.75;;;12.20;99.90;;;;;;4955426;28;20486;-75
2022/03/25 09:11:27;;;;;;;41.72;29.83;;;12.80;99.90;;;;;;4955665;28;20050;-76
2022/03/25 09:13:54;;;;;;;37.15;26.52;;;13.30;99.90;;;;;;4954668;28;20046;-74
2022/03/25 09:16:19;;;;;;;41.60;28.70;;;13.70;96.50;;;;;;4947130;28;20047;-74
2022/03/25 09:18:45;;;;;;;42.50;27.55;;;13.90;96.50;;;;;;4954108;28;20267;-74
2022/03/25 09:21:11;;;;;;;42.90;29.55;;;14.10;91.70;;;;;;4955385;28;20046;-74
2022/03/25 09:23:36;;;;;;;37.60;28.50;;;14.30;90.40;;;;;;4955103;28;20065;-74
2022/03/25 09:26:02;;;;;;;40.88;30.35;;;14.40;92.20;;;;;;4954989;28;20046;-74
2022/03/25 09:28:28;;;;;;;41.47;29.73;;;14.70;92.00;;;;;;4955110;28;20038;-74
2022/03/25 09:30:55;;;;;;;38.10;28.27;;;14.90;90.20;;;;;;4955288;28;20042;-74
2022/03/25 09:33:21;;;;;;;39.75;28.38;;;15.00;81.10;;;;;;4954989;28;20047;-74
2022/03/25 09:35:46;;;;;;;39.45;28.95;;;15.10;76.70;;;;;;4939276;28;20658;-74
2022/03/25 09:38:13;;;;;;;41.17;30.40;;;15.20;70.60;;;;;;4955379;28;20031;-74
2022/03/25 09:40:41;;;;;;;37.17;28.02;;;15.20;73.30;;;;;;4950613;28;20497;-74
2022/03/25 09:43:06;;;;;;;36.90;28.58;;;15.30;75.00;;;;;;4947191;29;20043;-74
2022/03/25 09:45:33;;;;;;;37.97;29.23;;;15.50;76.30;;;;;;4936131;29;20046;-74
2022/03/25 09:47:59;;;;;;;38.90;29.13;;;15.70;66.50;;;;;;4937455;29;20393;-75
2022/03/25 09:50:29;;;;;;;36.08;28.33;;;15.90;71.50;;;;;;4948557;28;20042;-74
2022/03/25 09:52:55;;;;;;;39.70;29.25;;;16.10;65.80;;;;;;4958611;28;20382;-74
2022/03/25 09:55:21;;;;;;;38.72;29.50;;;16.40;68.40;;;;;;4959005;28;20097;-74
2022/03/25 09:57:47;;;;;;;39.45;29.40;;;16.50;70.00;;;;;;4958836;28;20035;-74
2022/03/25 10:00:17;;;;;;;39.20;28.17;;;16.60;64.20;;;;;;4958632;28;20105;-74
2022/03/25 10:02:45;;;;;;;39.55;28.48;;;16.50;59.30;;;;;;4958547;28;20045;-74
2022/03/25 10:05:16;;;;;;;41.03;28.27;;;16.40;63.70;;;;;;4974900;28;20580;-74
2022/03/25 10:07:45;;;;;;;39.47;28.63;;;16.50;57.20;;;;;;4958700;28;20038;-74
2022/03/25 10:10:13;;;;;;;38.35;28.38;;;16.50;57.20;;;;;;4958175;28;20039;-74
2022/03/25 10:12:41;;;;;;;36.92;27.92;;;16.40;57.90;;;;;;4958340;28;20039;-74
2022/03/25 10:15:25;;;;;;;36.08;28.05;;;16.30;57.80;;;;;;4958594;28;20050;-73
2022/03/25 10:18:04;;;;;;;39.03;27.67;;;16.50;57.10;;;;;;4974522;28;20042;-73
2022/03/25 10:20:38;;;;;;;36.40;24.75;;;16.50;55.00;;;;;;4958163;28;20122;-73
2022/03/25 10:23:12;;;;;;;36.38;26.63;;;16.60;55.20;;;;;;4942904;28;20373;-73
2022/03/25 10:25:39;;;;;;;;;;;17.00;55.90;;;;;;4958787;28;20050;-74
2022/03/25 10:28:17;;;;;;;34.35;24.67;;;17.20;53.90;;;;;;4958523;28;19926;-74
2022/03/25 10:30:43;;;;;;;35.75;26.65;;;17.40;56.50;;;;;;4957822;28;20053;-74
2022/03/25 10:33:21;;;;;;;34.50;25.58;;;17.90;53.00;;;;;;4956451;28;20452;-74
2022/03/25 10:35:55;;;;;;;32.88;25.52;;;18.20;55.00;;;;;;4966611;28;20448;-73
2022/03/25 10:38:22;;;;;;;33.58;25.23;;;18.50;51.90;;;;;;4957736;28;20439;-73
2022/03/25 10:40:49;;;;;;;35.42;25.95;;;18.80;51.40;;;;;;4944537;29;20043;-73
2022/03/25 10:43:15;;;;;;;34.05;25.13;;;18.70;52.00;;;;;;4955250;28;20101;-73
2022/03/25 10:45:41;;;;;;;35.53;26.63;;;18.70;53.20;;;;;;4957995;28;20035;-73
2022/03/25 10:48:25;;;;;;;36.67;26.65;;;18.80;53.50;;;;;;4958095;28;20071;-73
2022/03/25 10:51:03;;;;;;;35.20;26.42;;;19.00;51.60;;;;;;4957714;28;20434;-75
2022/03/25 10:53:33;;;;;;;36.42;25.88;;;19.10;50.50;;;;;;4957536;28;20053;-75
2022/03/25 10:56:03;;;;;;;32.72;26.48;;;19.10;52.40;;;;;;4957756;28;20130;-74
2022/03/25 10:58:29;;;;;;;36.80;27.15;;;19.40;50.70;;;;;;4941716;28;20117;-74
2022/03/25 11:00:56;;;;;;;32.20;25.27;;;19.40;51.40;;;;;;4952518;28;20038;-75
2022/03/25 11:03:23;;;;;;;33.50;25.45;;;19.60;51.70;;;;;;4954847;28;20050;-74
2022/03/25 11:05:49;;;;;;;35.20;25.95;;;19.90;52.00;;;;;;4957885;28;20512;-76
2022/03/25 11:08:14;;;;;;;33.67;26.63;;;20.30;48.50;;;;;;4957640;28;20042;-75
2022/03/25 11:10:40;;;;;;;33.08;27.08;;;20.30;49.20;;;;;;4957310;28;20046;-75
2022/03/25 11:13:06;;;;;;;33.05;26.75;;;20.30;50.50;;;;;;4956745;28;20094;-76
2022/03/25 11:15:32;;;;;;;32.20;26.48;;;20.50;47.70;;;;;;4957049;28;20035;-74
2022/03/25 11:17:58;;;;;;;34.25;25.15;;;20.40;47.70;;;;;;4957001;28;20149;-74
2022/03/25 11:20:26;;;;;;;34.08;25.95;;;20.40;47.60;;;;;;4957553;28;20457;-74
2022/03/25 11:23:08;;;;;;;33.72;26.63;;;20.40;49.10;;;;;;4956919;28;20489;-74
2022/03/25 11:25:40;;;;;;;32.47;26.13;;;20.50;48.00;;;;;;4957250;28;20105;-74
2022/03/25 11:28:13;;;;;;;32.42;25.90;;;20.70;47.80;;;;;;4957420;28;20413;-74
2022/03/25 11:30:39;;;;;;;;;;;20.70;48.40;;;;;;4941911;28;20057;-74
2022/03/25 11:33:06;;;;;;;31.30;25.70;;;21.10;47.80;;;;;;4956638;28;19918;-74
2022/03/25 11:35:35;;;;;;;29.48;24.73;;;21.20;47.40;;;;;;4957133;28;20042;-75
2022/03/25 11:38:10;;;;;;;30.15;24.85;;;21.20;46.50;;;;;;4956310;28;20043;-74
2022/03/25 11:40:47;;;;;;;32.25;25.35;;;21.30;48.90;;;;;;4953842;28;20050;-74
2022/03/25 11:43:25;;;;;;;32.28;25.55;;;21.50;46.60;;;;;;4955250;28;20023;-74
2022/03/25 11:46:00;;;;;;;32.88;25.40;;;21.60;45.20;;;;;;4937066;29;20031;-74
2022/03/25 11:48:25;;;;;;;31.60;25.00;;;21.40;45.90;;;;;;4952296;29;20045;-74
2022/03/25 11:50:54;;;;;;;31.20;25.10;;;21.30;46.00;;;;;;4935463;28;20038;-74
2022/03/25 11:53:22;;;;;;;32.28;24.58;;;21.30;46.20;;;;;;4955335;28;20043;-74
2022/03/25 11:56:01;;;;;;;33.00;25.38;;;21.60;47.00;;;;;;4956527;28;20133;-74
2022/03/25 11:58:29;;;;;;;28.63;23.05;;;21.80;46.30;;;;;;4949850;29;20090;-74
2022/03/25 12:01:03;;;;;;;32.28;24.25;;;21.90;45.00;;;;;;4929982;28;20035;-74
2022/03/25 12:03:52;;;;;;;31.98;23.17;;;21.70;45.10;;;;;;4935137;28;20405;-73
2022/03/25 12:06:19;;;;;;;30.88;23.65;;;21.80;46.60;;;;;;4950299;28;20058;-73
2022/03/25 12:08:57;;;;;;;34.08;23.20;;;22.30;46.40;;;;;;4950721;28;20121;-74
2022/03/25 12:11:49;;;;;;;29.05;23.35;;;22.40;43.80;;;;;;4950214;28;20089;-74
2022/03/25 12:14:15;;;;;;;32.72;22.75;;;22.20;44.40;;;;;;4949501;28;20042;-74
2022/03/25 12:16:47;;;;;;;29.05;22.58;;;22.50;45.80;;;;;;4936873;28;20441;-73
2022/03/25 12:19:31;;;;;;;33.65;22.67;;;22.80;44.30;;;;;;4951264;28;20039;-73
2022/03/25 12:21:58;;;;;;;29.02;23.58;;;22.90;45.10;;;;;;4934572;28;20046;-73
2022/03/25 12:24:25;;;;;;;29.25;21.88;;;23.30;43.00;;;;;;4949537;28;20085;-74
2022/03/25 12:27:00;;;;;;;29.00;21.50;;;23.30;44.30;;;;;;4949837;29;20128;-74
2022/03/25 12:29:43;;;;;;;27.60;19.55;;;23.50;41.80;;;;;;4951807;28;20416;-73
2022/03/25 12:32:14;;;;;;;26.98;20.60;;;23.20;41.70;;;;;;4955849;28;20039;-73
2022/03/25 12:34:55;;;;;;;27.70;21.23;;;22.90;41.50;;;;;;4954706;28;20042;-73
2022/03/25 12:37:39;;;;;;;29.55;19.83;;;22.50;41.50;;;;;;4965807;28;20093;-73